Nearby METAR Reports

 

KOZR - Ozark/Cairns Aaf, Alabama, USA
Distance from station: SSW 2mi, 3km
Updated: Sun, 10-Dec-2017 7:56pm CST
Clear
Clear
 Wind from SW
Wind: SW 5 mph , 7 km/h
Temperature: 39°F , 4°C
Wind Chill: 35°F , 2°C
Dew Point: 28°F , -2°C
Humidity: 65%
Barometer: 30.31 inHg , 1026.4 hPa
Clouds: Clear
Visibility: 10 miles , 16 km
2017/12/11 01:56 KOZR 110156Z AUTO 23004KT 10SM CLR 04/M02 A3031 RMK AO2 SLP269 T00361020 $
KLOR - Lowe Ahp/Ft. Ruc, Alabama, USA
Distance from station: NW 4mi, 6km
Updated: Sun, 10-Dec-2017 7:58pm CST
Clear
Clear
 Wind from calm
Wind: Calm
Temperature: 32°F , 0°C
Dew Point: 32°F , 0°C
Humidity: 100%
Barometer: 30.31 inHg , 1026.4 hPa
Clouds: Clear
Visibility: 10 miles , 16 km
2017/12/11 01:58 KLOR 110158Z AUTO 00000KT 10SM CLR 00/00 A3031 RMK AO2 SLP249 T00040003 FZRANO $
 
KHEY - Ft Rucker/Hanche, Alabama, USA
Distance from station: NE 4mi, 7km
Updated: Sun, 10-Dec-2017 7:58pm CST
Clear
Clear
 Wind from calm
Wind: Calm
Temperature: 34°F , 1°C
Dew Point: 32°F , 0°C
Humidity: 93%
Barometer: 30.30 inHg , 1026.1 hPa
Clouds: Clear
Visibility: 10 miles , 16 km
2017/12/11 01:58 KHEY 110158Z AUTO 00000KT 10SM CLR 01/00 A3030 RMK AO2 SLP266 T00130004 FZRANO $
KSXS - Ft Rucker/Shell, Alabama, USA
Distance from station: WNW 9mi, 15km
Updated: Sun, 10-Dec-2017 7:58pm CST

 Wind from calm
Wind: Calm
Visibility: 10 miles , 16 km
2017/12/11 01:58 KSXS 110158Z AUTO 00000KT 10SM M 04/M01 A3030 RMK AO2 SLP266 T00431015 $
 
KEDN - Enterprise, Alabama, USA
Distance from station: W 11mi, 18km
Updated: Sun, 10-Dec-2017 7:55pm CST
Clear
Clear
 Wind from calm
Wind: Calm
Temperature: 34°F , 1°C
Dew Point: 34°F , 1°C
Humidity: 100%
Barometer: 30.31 inHg , 1026.4 hPa
Clouds: Clear
Visibility: 10 miles , 16 km
2017/12/11 01:55 KEDN 110155Z AUTO 00000KT 10SM CLR 01/01 A3031 RMK AO2 T00130010
KDHN - Dothan, Alabama, USA
Distance from station: E 15mi, 24km
Updated: Sun, 10-Dec-2017 7:53pm CST
Clear
Clear
 Wind from SW
Wind: SW 7 mph , 11 km/h
Temperature: 39°F , 4°C
Wind Chill: 34°F , 1°C
Dew Point: 30°F , -1°C
Humidity: 70%
Barometer: 30.34 inHg , 1027.4 hPa
Clouds: Clear
Visibility: 10 miles , 16 km
2017/12/11 01:53 KDHN 110153Z 23006KT 10SM CLR 04/M01 A3034 RMK AO2 SLP274 T00441011 $
 
K1J0 - Bonifay Tri-Cty, Florida, USA
Distance from station: SSE 32mi, 52km
Updated: Thu, 09-Nov-2017 4:58am CST
NOT Current
Overcast
Overcast
 Wind from varies
Wind: varies 5 mph , 7 km/h
Temperature: 63°F , 17°C
Dew Point: 63°F , 17°C
Humidity: 100%
Barometer: 30.04 inHg , 1017.3 hPa
Clouds: Overcast
Visibility: 8 miles , 13 km
Cloud details: Overcast 1200 ft
2017/11/09 10:58 K1J0 091058Z AUTO VRB04KT 8SM OVC012 17/17 A3004 RMK AO2 SLP131 T01720167 $
K0J4 - Florala Muni, Alabama, USA
Distance from station: WSW 40mi, 65km
Updated: Sun, 10-Dec-2017 7:58pm CST
Clear
Clear
 Wind from SSW
Wind: SSW 5 mph , 7 km/h
Temperature: 36°F , 2°C
Wind Chill: 32°F , 0°C
Dew Point: 30°F , -1°C
Humidity: 81%
Barometer: 30.34 inHg , 1027.4 hPa
Clouds: Clear
Visibility: 10 miles , 16 km
2017/12/11 01:58 K0J4 110158Z AUTO 21004KT 10SM CLR 02/M01 A3034 RMK AO2 SLP276 T00171011 PWINO FZRANO
 
K79J - Andalusia/Opp Ar, Alabama, USA
Distance from station: W 41mi, 66km
Updated: Sun, 10-Dec-2017 7:56pm CST
Clear
Clear
 Wind from calm
Wind: Calm
Temperature: 37°F , 3°C
Dew Point: 32°F , 0°C
Humidity: 81%
Barometer: 30.31 inHg , 1026.4 hPa
Clouds: Clear
Visibility: 10 miles , 16 km
2017/12/11 01:56 K79J 110156Z AUTO 00000KT 10SM CLR 03/00 A3031 RMK AO2 SLP265 T00330000 $
KTOI - Troy, Alabama, USA
Distance from station: NNW 42mi, 67km
Updated: Sun, 10-Dec-2017 7:53pm CST
Clear
Clear
 Wind from calm
Wind: Calm
Temperature: 34°F , 1°C
Dew Point: 30°F , -1°C
Humidity: 87%
Barometer: 30.31 inHg , 1026.4 hPa
Clouds: Clear
Visibility: 10 miles , 16 km
2017/12/11 01:53 KTOI 110153Z AUTO 00000KT 10SM CLR 01/M01 A3031 RMK AO2 SLP267 T00111006
 
KMAI - Marianna, Florida, USA
Distance from station: SE 45mi, 73km
Updated: Sun, 10-Dec-2017 7:53pm CST
Clear
Clear
 Wind from calm
Wind: Calm
Temperature: 37°F , 3°C
Dew Point: 32°F , 0°C
Humidity: 81%
Barometer: 30.32 inHg , 1026.8 hPa
Clouds: Clear
Visibility: 10 miles , 16 km
2017/12/11 01:53 KMAI 110153Z AUTO 00000KT 10SM CLR 03/00 A3032 RMK AO2 SLP267 T00330000
K54J - De Funiak Sprngs, Florida, USA
Distance from station: SSW 48mi, 77km
Updated: Sun, 10-Dec-2017 7:55pm CST
Clear
Clear
 Wind from W
Wind: W 6 mph , 9 km/h
Temperature: 41°F , 5°C
Wind Chill: 37°F , 3°C
Dew Point: 28°F , -2°C
Humidity: 61%
Barometer: 30.33 inHg , 1027.1 hPa
Clouds: Clear
Visibility: 10 miles , 16 km
2017/12/11 01:55 K54J 110155Z AUTO 26005KT 10SM CLR 05/M02 A3033 RMK AO2 T00511024
 
KBIJ - Blakely Early C, Georgia, USA
Distance from station: E 48mi, 77km
Updated: Sat, 09-Dec-2017 9:15pm CST
NOT Current
Clear
Clear
 Wind from calm
Wind: Calm
Temperature: 34°F , 1°C
Dew Point: 32°F , 0°C
Humidity: 93%
Barometer: 30.21 inHg , 1023 hPa
Clouds: Clear
Visibility: 10 miles , 16 km
2017/12/10 03:15 KBIJ 100315Z AUTO 00000KT 10SM CLR 01/00 A3021 RMK AO2
KEUF - Eufaula, Alabama, USA
Distance from station: NE 56mi, 90km
Updated: Sun, 10-Dec-2017 7:58pm CST
Clear
Clear
 Wind from calm
Wind: Calm
Temperature: 32°F , 0°C
Dew Point: 28°F , -2°C
Humidity: 87%
Barometer: 30.30 inHg , 1026.1 hPa
Clouds: Clear
Visibility: 10 miles , 16 km
2017/12/11 01:58 KEUF 110158Z AUTO 00000KT 10SM CLR 00/M02 A3030 RMK AO2 SLP262 I1003 T00001017
 
KCEW - Crestview, Florida, USA
Distance from station: SW 60mi, 97km
Updated: Sun, 10-Dec-2017 7:53pm CST
Clear
Clear
 Wind from calm
Wind: Calm
Temperature: 34°F , 1°C
Dew Point: 30°F , -1°C
Humidity: 87%
Barometer: 30.34 inHg , 1027.4 hPa
Clouds: Clear
Visibility: 10 miles , 16 km
2017/12/11 01:53 KCEW 110153Z AUTO 00000KT 10SM CLR 01/M01 A3034 RMK AO2 SLP277 T00061006
KPRN - Greenville, Alabama, USA
Distance from station: NW 65mi, 105km
Updated: Sun, 10-Dec-2017 7:56pm CST
Clear
Clear
 Wind from calm
Wind: Calm
Temperature: 34°F , 1°C
Dew Point: 28°F , -2°C
Humidity: 81%
Barometer: 30.30 inHg , 1026.1 hPa
Clouds: Clear
Visibility: 10 miles , 16 km
2017/12/11 01:56 KPRN 110156Z AUTO 00000KT 10SM CLR 01/M02 A3030 RMK AO2 SLP263 T00111017 $
 
KECP - Panama City, Florida, USA
Distance from station: S 67mi, 107km
Updated: Sun, 10-Dec-2017 7:53pm CST
Clear
Clear
 Wind from calm
Wind: Calm
Temperature: 36°F , 2°C
Dew Point: 34°F , 1°C
Humidity: 93%
Barometer: 30.33 inHg , 1027.1 hPa
Clouds: Clear
Visibility: 10 miles , 16 km
2017/12/11 01:53 KECP 110153Z 00000KT 10SM CLR 02/01 A3033 RMK AO2 SLP282 T00220006
KEGI - Duke Fld/Eglin, Florida, USA
Distance from station: SW 67mi, 108km
Updated: Sun, 10-Dec-2017 7:56pm CST
Clear
Clear
 Wind from SW
Wind: SW 5 mph , 7 km/h
Temperature: 37°F , 3°C
Wind Chill: 33°F , 1°C
Dew Point: 30°F , -1°C
Humidity: 75%
Barometer: 30.33 inHg , 1027.1 hPa
Clouds: Clear
Visibility: 10 miles , 16 km
2017/12/11 01:56 KEGI 110156Z AUTO 23004KT 10SM CLR 03/M01 A3033 RMK AO2 SLP274 T00271008 $
 
KBGE - Bainbridge, Georgia, USA
Distance from station: ESE 68mi, 109km
Updated: Sun, 10-Dec-2017 7:55pm CST
Clear
Clear
 Wind from calm
Wind: Calm
Temperature: 37°F , 3°C
Dew Point: 36°F , 2°C
Humidity: 93%
Barometer: 30.32 inHg , 1026.8 hPa
Clouds: Clear
Visibility: 10 miles , 16 km
2017/12/11 01:55 KBGE 110155Z AUTO 00000KT 10SM CLR 03/02 A3032 RMK AO2
KVPS - Eglin Afb/Valpar, Florida, USA
Distance from station: SW 75mi, 121km
Updated: Sun, 10-Dec-2017 7:55pm CST
Clear
Clear
 Wind from WNW
Wind: WNW 6 mph , 9 km/h
Temperature: 39°F , 4°C
Wind Chill: 35°F , 2°C
Dew Point: 32°F , 0°C
Humidity: 75%
Barometer: 30.33 inHg , 1027.1 hPa
Clouds: Clear
Visibility: 10 miles , 16 km
2017/12/11 01:55 KVPS 110155Z 29005KT 10SM CLR 04/00 A3033 RMK AO2A SLP278 T00420002 $